createdAt,value
2018-06-21T00:00:04.850Z,1004.48
2018-06-21T00:01:04.861Z,1004.49
2018-06-21T00:02:04.888Z,1004.47
2018-06-21T00:03:04.894Z,1004.49
2018-06-21T00:04:04.912Z,1004.48
2018-06-21T00:05:04.922Z,1004.51
2018-06-21T00:06:04.936Z,1004.49
2018-06-21T00:07:04.956Z,1004.47
2018-06-21T00:08:04.964Z,1004.46
2018-06-21T00:09:04.990Z,1004.43
2018-06-21T00:10:04.996Z,1004.42
2018-06-21T00:11:05.017Z,1004.40
2018-06-21T00:12:05.027Z,1004.44
2018-06-21T00:13:05.047Z,1004.39
2018-06-21T00:14:05.068Z,1004.41
2018-06-21T00:15:05.069Z,1004.38
2018-06-21T00:16:05.188Z,1004.42
2018-06-21T00:17:05.106Z,1004.43
2018-06-21T00:18:05.113Z,1004.44
2018-06-21T00:19:05.128Z,1004.46
2018-06-21T00:20:05.145Z,1004.45
2018-06-21T00:21:05.163Z,1004.44
2018-06-21T00:22:05.180Z,1004.46
2018-06-21T00:23:05.185Z,1004.45
2018-06-21T00:24:05.204Z,1004.42
2018-06-21T00:25:05.251Z,1004.42
2018-06-21T00:26:05.279Z,1004.43
2018-06-21T00:27:05.266Z,1004.41
2018-06-21T00:28:05.260Z,1004.43
2018-06-21T00:29:05.269Z,1004.44
2018-06-21T00:30:05.298Z,1004.41
2018-06-21T00:31:05.298Z,1004.42
2018-06-21T00:32:05.319Z,1004.38
2018-06-21T00:33:05.328Z,1004.39
2018-06-21T00:34:05.359Z,1004.31
2018-06-21T00:35:05.362Z,1004.36
2018-06-21T00:36:05.388Z,1004.33
2018-06-21T00:37:05.417Z,1004.30
2018-06-21T00:38:05.410Z,1004.27
2018-06-21T00:39:05.426Z,1004.27
2018-06-21T00:40:05.437Z,1004.29
2018-06-21T00:41:05.449Z,1004.25
2018-06-21T00:42:05.482Z,1004.25
2018-06-21T00:43:05.491Z,1004.22
2018-06-21T00:44:05.490Z,1004.21
2018-06-21T00:45:05.507Z,1004.16
2018-06-21T00:46:05.521Z,1004.15
2018-06-21T00:47:05.537Z,1004.14
2018-06-21T00:48:05.567Z,1004.13
2018-06-21T00:49:05.566Z,1004.18
2018-06-21T00:50:05.588Z,1004.17
2018-06-21T00:51:05.595Z,1004.17
2018-06-21T00:52:05.604Z,1004.18
2018-06-21T00:53:05.624Z,1004.20
2018-06-21T00:54:05.641Z,1004.19
2018-06-21T00:55:05.662Z,1004.21
2018-06-21T00:56:05.666Z,1004.17
2018-06-21T00:57:05.686Z,1004.17
2018-06-21T00:58:05.696Z,1004.14
2018-06-21T00:59:05.714Z,1004.11
2018-06-21T01:00:05.724Z,1004.14
2018-06-21T01:01:05.769Z,1004.14
2018-06-21T01:02:05.750Z,1004.15
2018-06-21T01:03:05.765Z,1004.13
2018-06-21T01:04:05.781Z,1004.14
2018-06-21T01:05:05.792Z,1004.15
2018-06-21T01:06:05.811Z,1004.12
2018-06-21T01:07:05.820Z,1004.16
2018-06-21T01:08:05.836Z,1004.12
2018-06-21T01:09:05.853Z,1004.12
2018-06-21T01:10:05.875Z,1004.11
2018-06-21T01:11:05.889Z,1004.09
2018-06-21T01:12:05.892Z,1004.11
2018-06-21T01:13:05.908Z,1004.07
2018-06-21T01:14:05.919Z,1004.09
2018-06-21T01:15:05.932Z,1004.07
2018-06-21T01:16:05.951Z,1004.07
2018-06-21T01:17:05.968Z,1004.04
2018-06-21T01:18:05.983Z,1004.04
2018-06-21T01:19:05.989Z,1004.02
2018-06-21T01:20:06.011Z,1004.04
2018-06-21T01:21:06.020Z,1004.01
2018-06-21T01:22:06.038Z,1004.01
2018-06-21T01:23:06.050Z,1004.02
2018-06-21T01:24:06.061Z,1004.03
2018-06-21T01:25:06.093Z,1003.98
2018-06-21T01:26:06.094Z,1003.99
2018-06-21T01:27:06.121Z,1003.96
2018-06-21T01:28:06.116Z,1003.95
2018-06-21T01:29:06.132Z,1003.95
2018-06-21T01:30:06.143Z,1003.98
2018-06-21T01:31:06.170Z,1003.98
2018-06-21T01:32:06.168Z,1003.99
2018-06-21T01:33:06.187Z,1004.00
2018-06-21T01:34:06.201Z,1004.00
2018-06-21T01:35:06.217Z,1004.00
2018-06-21T01:36:06.228Z,1004.01
2018-06-21T01:37:06.242Z,1004.01
2018-06-21T01:38:06.255Z,1004.00
2018-06-21T01:39:06.273Z,1004.02
2018-06-21T01:40:06.291Z,1004.04
2018-06-21T01:41:06.299Z,1004.06
2018-06-21T01:42:06.316Z,1004.07
2018-06-21T01:43:06.329Z,1004.09
2018-06-21T01:44:06.347Z,1004.05
2018-06-21T01:45:06.359Z,1004.04
2018-06-21T01:46:06.359Z,1004.06
2018-06-21T01:47:06.388Z,1004.05
2018-06-21T01:48:06.402Z,1004.00
2018-06-21T01:49:06.411Z,1003.99
2018-06-21T01:50:06.424Z,1004.00
2018-06-21T01:51:06.442Z,1003.98
2018-06-21T01:52:06.460Z,1003.95
2018-06-21T01:53:06.465Z,1003.95
2018-06-21T01:54:06.487Z,1003.96
2018-06-21T01:55:06.490Z,1003.93
2018-06-21T01:56:06.506Z,1003.95
2018-06-21T01:57:06.519Z,1003.97
2018-06-21T01:58:06.533Z,1003.96
2018-06-21T01:59:06.565Z,1004.00
2018-06-21T02:00:06.562Z,1003.97
2018-06-21T02:01:06.576Z,1003.99
2018-06-21T02:02:06.592Z,1004.01
2018-06-21T02:03:06.603Z,1003.99
2018-06-21T02:04:06.610Z,1004.02
2018-06-21T02:05:06.623Z,1004.00
2018-06-21T02:06:06.644Z,1004.00
2018-06-21T02:07:06.656Z,1004.03
2018-06-21T02:08:06.724Z,1004.05
2018-06-21T02:09:06.691Z,1004.02
2018-06-21T02:10:06.749Z,1004.02
2018-06-21T02:11:06.727Z,1004.06
2018-06-21T02:12:06.730Z,1003.98
2018-06-21T02:13:06.734Z,1003.99
2018-06-21T02:14:06.757Z,1003.94
2018-06-21T02:15:06.768Z,1003.93
2018-06-21T02:16:06.782Z,1003.92
2018-06-21T02:17:06.805Z,1003.93
2018-06-21T02:18:06.814Z,1003.85
2018-06-21T02:19:06.814Z,1003.93
2018-06-21T02:20:06.840Z,1003.91
2018-06-21T02:21:06.859Z,1003.90
2018-06-21T02:22:06.875Z,1003.93
2018-06-21T02:23:06.887Z,1003.93
2018-06-21T02:24:06.897Z,1003.90
2018-06-21T02:25:06.909Z,1003.89
2018-06-21T02:26:06.922Z,1003.90
2018-06-21T02:27:06.935Z,1003.91
2018-06-21T02:28:06.946Z,1003.86
2018-06-21T02:29:06.968Z,1003.88
2018-06-21T02:30:06.974Z,1003.86
2018-06-21T02:31:06.989Z,1003.87
2018-06-21T02:32:07.000Z,1003.84
2018-06-21T02:33:07.012Z,1003.84
2018-06-21T02:34:07.028Z,1003.78
2018-06-21T02:35:07.042Z,1003.76
2018-06-21T02:36:07.059Z,1003.76
2018-06-21T02:37:07.075Z,1003.78
2018-06-21T02:38:07.087Z,1003.78
2018-06-21T02:39:07.114Z,1003.81
2018-06-21T02:40:07.115Z,1003.81
2018-06-21T02:41:07.124Z,1003.81
2018-06-21T02:42:07.145Z,1003.74
2018-06-21T02:43:07.156Z,1003.77
2018-06-21T02:44:07.178Z,1003.78
2018-06-21T02:45:07.180Z,1003.80
2018-06-21T02:46:07.195Z,1003.76
2018-06-21T02:47:07.211Z,1003.78
2018-06-21T02:48:07.224Z,1003.73
2018-06-21T02:49:07.252Z,1003.71
2018-06-21T02:50:07.251Z,1003.73
2018-06-21T02:51:07.259Z,1003.71
2018-06-21T02:52:07.284Z,1003.70
2018-06-21T02:53:07.289Z,1003.68
2018-06-21T02:54:07.310Z,1003.65
2018-06-21T02:55:07.317Z,1003.64
2018-06-21T02:56:07.346Z,1003.62
2018-06-21T02:57:07.352Z,1003.62
2018-06-21T02:58:07.368Z,1003.65
2018-06-21T02:59:07.377Z,1003.67
2018-06-21T03:00:07.389Z,1003.67
2018-06-21T03:01:07.403Z,1003.66
2018-06-21T03:02:07.412Z,1003.71
2018-06-21T03:03:07.422Z,1003.68
2018-06-21T03:04:07.537Z,1003.69
2018-06-21T03:05:07.450Z,1003.66
2018-06-21T03:06:07.468Z,1003.70
2018-06-21T03:07:07.495Z,1003.74
2018-06-21T03:08:07.491Z,1003.73
2018-06-21T03:09:07.512Z,1003.80
2018-06-21T03:10:07.528Z,1003.75
2018-06-21T03:11:07.537Z,1003.76
2018-06-21T03:12:07.550Z,1003.72
2018-06-21T03:13:07.574Z,1003.71
2018-06-21T03:14:07.592Z,1003.71
2018-06-21T03:15:13.236Z,1003.76
2018-06-21T03:22:40.547Z,1003.73
2018-06-21T03:22:41.035Z,1003.69
2018-06-21T03:23:41.057Z,1003.77
2018-06-21T03:24:41.060Z,1003.73
2018-06-21T03:25:41.081Z,1003.72
2018-06-21T03:26:41.091Z,1003.70
2018-06-21T03:27:41.117Z,1003.70
2018-06-21T03:28:41.127Z,1003.72
2018-06-21T03:29:41.134Z,1003.77
2018-06-21T03:30:41.155Z,1003.79
2018-06-21T03:31:41.163Z,1003.77
2018-06-21T03:32:41.170Z,1003.76
2018-06-21T03:33:41.187Z,1003.75
2018-06-21T03:34:41.192Z,1003.66
2018-06-21T03:35:41.218Z,1003.68
2018-06-21T03:36:41.226Z,1003.68
2018-06-21T03:37:41.235Z,1003.70
2018-06-21T03:38:41.248Z,1003.65
2018-06-21T03:40:16.740Z,1003.70
2018-06-21T03:41:37.134Z,1003.65
2018-06-21T03:41:41.341Z,1003.69
2018-06-21T03:49:46.021Z,1003.62
2018-06-21T03:49:46.497Z,1003.62
2018-06-21T05:35:41.570Z,1004.35
2018-06-21T05:35:42.053Z,1004.33
2018-06-21T05:36:42.084Z,1004.28
2018-06-21T05:37:42.079Z,1004.28
2018-06-21T05:38:42.105Z,1004.32
2018-06-21T05:39:42.104Z,1004.29
2018-06-21T05:40:42.118Z,1004.26
2018-06-21T05:41:42.130Z,1004.19
2018-06-21T05:42:42.138Z,1004.16
2018-06-21T05:43:42.157Z,1004.25
2018-06-21T05:44:42.167Z,1004.26
2018-06-21T05:45:42.185Z,1004.20
2018-06-21T05:46:42.198Z,1004.23
2018-06-21T05:47:42.215Z,1004.21
2018-06-21T05:48:42.225Z,1004.24
2018-06-21T05:49:42.235Z,1004.18
2018-06-21T05:50:42.256Z,1004.21
2018-06-21T05:51:42.273Z,1004.23
2018-06-21T05:52:42.286Z,1004.21
2018-06-21T05:53:42.303Z,1004.27
2018-06-21T05:54:42.304Z,1004.20
2018-06-21T05:55:42.319Z,1004.21
2018-06-21T05:56:42.389Z,1004.23
2018-06-21T05:57:42.352Z,1004.17
2018-06-21T05:58:42.364Z,1004.17
2018-06-21T05:59:42.375Z,1004.14
2018-06-21T06:00:42.410Z,1004.21
2018-06-21T06:01:42.404Z,1004.13
2018-06-21T06:02:42.425Z,1004.15
2018-06-21T06:03:42.430Z,1004.08
2018-06-21T06:04:42.453Z,1004.06
2018-06-21T06:05:42.460Z,1004.10
2018-06-21T06:06:42.475Z,1004.06
2018-06-21T06:07:42.496Z,1004.08
2018-06-21T06:08:42.539Z,1004.12
2018-06-21T06:09:42.518Z,1004.08
2018-06-21T06:10:42.529Z,1004.11
2018-06-21T06:11:42.567Z,1004.07
2018-06-21T06:12:42.558Z,1004.10
2018-06-21T06:13:42.580Z,1004.12
2018-06-21T06:14:42.584Z,1004.10
2018-06-21T06:15:42.598Z,1004.05
2018-06-21T06:16:42.632Z,1004.12
2018-06-21T06:17:42.627Z,1004.09
2018-06-21T06:18:42.650Z,1004.17
2018-06-21T06:19:42.656Z,1004.11
2018-06-21T06:20:42.673Z,1004.11
2018-06-21T06:21:42.681Z,1004.12
2018-06-21T06:22:42.698Z,1004.13
2018-06-21T06:23:42.711Z,1004.09
2018-06-21T06:24:42.734Z,1004.11
2018-06-21T06:25:42.740Z,1004.12
2018-06-21T06:26:42.751Z,1004.04
2018-06-21T06:27:42.781Z,1004.02
2018-06-21T06:28:42.837Z,1004.07
2018-06-21T06:29:42.786Z,1004.08
2018-06-21T06:30:42.797Z,1004.10
2018-06-21T06:31:42.815Z,1004.07
2018-06-21T06:32:42.845Z,1004.11
2018-06-21T06:33:42.855Z,1004.10
2018-06-21T06:34:42.943Z,1004.12
2018-06-21T06:35:42.879Z,1004.11
2018-06-21T06:36:42.890Z,1004.12
2018-06-21T06:37:42.916Z,1004.14
2018-06-21T06:38:42.916Z,1004.13
2018-06-21T06:39:42.931Z,1004.19
2018-06-21T06:40:42.961Z,1004.17
2018-06-21T06:41:42.951Z,1004.13
2018-06-21T06:42:42.964Z,1004.15
2018-06-21T06:43:42.986Z,1004.17
2018-06-21T06:44:43.031Z,1004.14
2018-06-21T06:45:43.008Z,1004.15
2018-06-21T06:46:43.025Z,1004.20
2018-06-21T06:47:43.057Z,1004.20
2018-06-21T06:48:43.069Z,1004.19
2018-06-21T06:49:43.068Z,1004.24
2018-06-21T06:50:43.082Z,1004.24
2018-06-21T06:51:43.103Z,1004.25
2018-06-21T06:52:43.118Z,1004.26
2018-06-21T06:53:43.121Z,1004.29
2018-06-21T06:54:43.196Z,1004.29
2018-06-21T06:55:43.156Z,1004.25
2018-06-21T06:56:43.169Z,1004.32
2018-06-21T06:57:43.190Z,1004.22
2018-06-21T06:58:43.198Z,1004.24
2018-06-21T06:59:43.199Z,1004.22
2018-06-21T07:00:43.301Z,1004.21
2018-06-21T07:01:43.241Z,1004.19
2018-06-21T07:02:43.291Z,1004.23
2018-06-21T07:03:43.261Z,1004.21
2018-06-21T07:04:43.277Z,1004.21
2018-06-21T07:05:43.284Z,1004.26
2018-06-21T07:06:43.305Z,1004.24
2018-06-21T07:07:43.322Z,1004.22
2018-06-21T07:08:43.330Z,1004.27
2018-06-21T07:09:43.359Z,1004.28
2018-06-21T07:10:43.367Z,1004.26
2018-06-21T07:11:43.372Z,1004.34
2018-06-21T07:12:43.385Z,1004.31
2018-06-21T07:13:43.401Z,1004.27
2018-06-21T07:14:43.421Z,1004.37
2018-06-21T07:15:43.443Z,1004.30
2018-06-21T07:16:43.443Z,1004.30
2018-06-21T07:17:43.477Z,1004.30
2018-06-21T07:18:43.468Z,1004.29
2018-06-21T07:19:43.482Z,1004.32
2018-06-21T07:20:43.499Z,1004.32
2018-06-21T07:21:43.510Z,1004.33
2018-06-21T07:22:43.553Z,1004.33
2018-06-21T07:23:43.535Z,1004.31
2018-06-21T07:24:43.563Z,1004.39
2018-06-21T07:25:43.568Z,1004.42
2018-06-21T07:27:43.594Z,1004.38
2018-06-21T07:28:43.620Z,1004.38
2018-06-21T07:29:43.611Z,1004.44
2018-06-21T07:30:43.648Z,1004.47
2018-06-21T07:31:43.660Z,1004.43
2018-06-21T07:32:43.661Z,1004.54
2018-06-21T07:33:43.679Z,1004.46
2018-06-21T07:34:43.746Z,1004.48
2018-06-21T07:35:43.706Z,1004.59
2018-06-21T07:36:43.735Z,1004.56
2018-06-21T07:37:43.744Z,1004.56
2018-06-21T07:38:43.762Z,1004.53
2018-06-21T07:39:43.768Z,1004.53
2018-06-21T07:40:43.790Z,1004.52
2018-06-21T07:41:43.783Z,1004.59
2018-06-21T07:42:43.801Z,1004.57
2018-06-21T07:43:43.810Z,1004.52
2018-06-21T07:44:43.831Z,1004.44
2018-06-21T07:45:43.842Z,1004.47
2018-06-21T07:46:43.875Z,1004.49
2018-06-21T07:47:43.881Z,1004.49
2018-06-21T07:48:43.879Z,1004.50
2018-06-21T07:49:43.904Z,1004.54
2018-06-21T07:50:43.921Z,1004.46
2018-06-21T07:51:43.941Z,1004.44
2018-06-21T07:52:43.942Z,1004.48
2018-06-21T07:53:43.984Z,1004.47
2018-06-21T07:54:43.979Z,1004.53
2018-06-21T07:55:43.991Z,1004.41
2018-06-21T07:56:43.993Z,1004.57
2018-06-21T07:57:44.010Z,1004.52
2018-06-21T07:58:44.028Z,1004.55
2018-06-21T07:59:44.040Z,1004.47
2018-06-21T08:00:44.055Z,1004.44
2018-06-21T08:01:44.063Z,1004.53
2018-06-21T08:02:44.101Z,1004.47
2018-06-21T08:03:44.093Z,1004.47
2018-06-21T08:04:44.107Z,1004.46
2018-06-21T08:05:44.114Z,1004.48
2018-06-21T08:06:44.131Z,1004.46
2018-06-21T08:07:44.150Z,1004.46
2018-06-21T08:08:44.159Z,1004.44
2018-06-21T08:09:44.178Z,1004.38
2018-06-21T08:10:44.204Z,1004.62
2018-06-21T08:11:44.205Z,1004.46
2018-06-21T08:12:44.268Z,1004.48
2018-06-21T08:13:44.230Z,1004.49
2018-06-21T08:14:44.249Z,1004.56
2018-06-21T08:15:44.261Z,1004.40
2018-06-21T08:16:44.281Z,1004.48
2018-06-21T08:17:44.303Z,1004.46
2018-06-21T08:18:44.313Z,1004.38
2018-06-21T08:19:44.321Z,1004.45
2018-06-21T08:20:44.332Z,1004.35
2018-06-21T08:21:44.346Z,1004.38
2018-06-21T08:22:44.354Z,1004.36
2018-06-21T08:23:44.377Z,1004.39
2018-06-21T08:24:44.387Z,1004.36
2018-06-21T08:25:44.401Z,1004.37
2018-06-21T08:26:44.425Z,1004.38
2018-06-21T08:27:44.426Z,1004.43
2018-06-21T08:28:44.447Z,1004.37
2018-06-21T08:29:44.460Z,1004.33
2018-06-21T08:30:44.471Z,1004.36
2018-06-21T08:31:44.490Z,1004.29
2018-06-21T08:32:44.499Z,1004.33
2018-06-21T08:33:44.529Z,1004.36
2018-06-21T08:34:44.538Z,1004.42
2018-06-21T08:35:44.551Z,1004.41
2018-06-21T08:36:44.559Z,1004.34
2018-06-21T08:37:44.589Z,1004.37
2018-06-21T08:38:44.624Z,1004.37
2018-06-21T08:39:44.604Z,1004.39
2018-06-21T08:40:44.622Z,1004.44
2018-06-21T08:41:44.629Z,1004.50
2018-06-21T08:42:44.654Z,1004.41
2018-06-21T08:43:44.677Z,1004.46
2018-06-21T08:44:44.682Z,1004.44
2018-06-21T08:45:44.725Z,1004.49
2018-06-21T08:46:44.713Z,1004.44
2018-06-21T08:47:44.724Z,1004.41
2018-06-21T08:53:44.039Z,1004.49
2018-06-21T08:53:44.532Z,1004.45
2018-06-21T08:54:44.540Z,1004.42
2018-06-21T08:55:44.560Z,1004.41
2018-06-21T08:59:03.894Z,1004.38
2018-06-21T08:59:04.407Z,1004.40
2018-06-21T09:00:04.392Z,1004.36
2018-06-21T09:01:04.418Z,1004.37
2018-06-21T09:02:04.448Z,1004.34
2018-06-21T09:03:04.467Z,1004.40
2018-06-21T09:04:04.453Z,1004.41
2018-06-21T09:05:04.494Z,1004.52
2018-06-21T09:06:04.495Z,1004.48
2018-06-21T09:07:04.519Z,1004.48
2018-06-21T09:08:04.514Z,1004.48
2018-06-21T09:09:04.532Z,1004.46
2018-06-21T09:10:04.541Z,1004.46
2018-06-21T09:11:04.549Z,1004.45
2018-06-21T09:12:04.575Z,1004.48
2018-06-21T09:13:04.608Z,1004.47
2018-06-21T09:14:04.610Z,1004.52
2018-06-21T09:15:04.610Z,1004.55
2018-06-21T09:16:04.631Z,1004.60
2018-06-21T09:17:04.646Z,1004.53
2018-06-21T09:18:04.655Z,1004.54
2018-06-21T09:19:04.673Z,1004.52
2018-06-21T09:20:04.709Z,1004.58
2018-06-21T09:21:04.764Z,1004.58
2018-06-21T09:22:04.722Z,1004.62
2018-06-21T09:23:04.738Z,1004.60
2018-06-21T09:24:04.749Z,1004.57
2018-06-21T09:25:04.771Z,1004.60
2018-06-21T09:26:04.783Z,1004.68
2018-06-21T09:27:04.790Z,1004.62
2018-06-21T09:28:04.807Z,1004.66
2018-06-21T09:29:04.837Z,1004.61
2018-06-21T09:30:04.835Z,1004.64
2018-06-21T09:31:04.937Z,1004.63
2018-06-21T09:32:04.873Z,1004.64
2018-06-21T09:33:04.879Z,1004.66
2018-06-21T09:34:04.895Z,1004.75
2018-06-21T09:35:04.918Z,1004.72
2018-06-21T09:36:04.919Z,1004.69
2018-06-21T09:37:04.949Z,1004.79
2018-06-21T09:38:04.958Z,1004.82
2018-06-21T09:39:04.963Z,1004.72
2018-06-21T09:40:04.982Z,1004.77
2018-06-21T09:41:05.005Z,1004.75
2018-06-21T09:42:05.077Z,1004.78
2018-06-21T09:43:05.036Z,1004.76
2018-06-21T09:44:05.075Z,1004.66
2018-06-21T09:45:05.063Z,1004.68
2018-06-21T09:46:05.077Z,1004.75
2018-06-21T09:47:05.100Z,1004.72
2018-06-21T09:48:05.120Z,1004.72
2018-06-21T09:49:05.118Z,1004.71
2018-06-21T09:50:05.127Z,1004.70
2018-06-21T09:51:05.162Z,1004.71
2018-06-21T09:52:05.167Z,1004.68
2018-06-21T09:53:05.216Z,1004.73
2018-06-21T09:54:05.205Z,1004.70
2018-06-21T09:55:05.212Z,1004.73
2018-06-21T09:56:05.226Z,1004.69
2018-06-21T09:57:05.238Z,1004.76
2018-06-21T09:58:05.277Z,1004.68
2018-06-21T09:59:05.276Z,1004.69
2018-06-21T10:00:05.323Z,1004.81
2018-06-21T10:01:05.312Z,1004.74
2018-06-21T10:02:05.328Z,1004.68
2018-06-21T10:03:05.341Z,1004.65
2018-06-21T10:04:05.359Z,1004.81
2018-06-21T10:05:05.370Z,1004.73
2018-06-21T10:06:05.387Z,1004.72
2018-06-21T10:07:05.422Z,1004.74
2018-06-21T10:08:05.642Z,1004.77
2018-06-21T10:09:05.435Z,1004.76
2018-06-21T10:10:05.456Z,1004.70
2018-06-21T10:11:05.463Z,1004.65
2018-06-21T10:12:05.484Z,1004.78
2018-06-21T10:13:05.496Z,1004.81
2018-06-21T10:14:05.510Z,1004.72
2018-06-21T10:15:05.532Z,1004.68
2018-06-21T10:16:05.539Z,1004.69
2018-06-21T10:18:18.534Z,1004.67
2018-06-21T10:18:19.035Z,1004.68
